Sapulpa, OK (74066)

9:51 AM CDT on October 25, 2014 (GMT -0500)
Sapulpa | Change Station
CLOSE
Current Station
Personal Weather Station
Location: Sapulpa, OK
Elevation: 896 ft
Nearby Weather Stations

Elev 896 ft 35.97 °N, 96.18 °W | Updated 2 seconds ago

Clear
Clear
0.0 °F
Feels Like 0.0 °F
N
0.0
Wind Variable Wind from North
Gusts 0.0 mph

Today
High -- | Low -- °F
--% Chance of Precip.
Yesterday
High -- | Low -- °F
Precip. -- in
7:40 AM 6:36 PM
Waxing Crescent, 3% visible
Pressure 30.11 in
Visibility 9.0 miles
Clouds Clear
Dew Point Not available.
Humidity Not available.
Rainfall 0.02 in
Snow Depth Not available.
UV 1 out of 12
Pollen 4.30 out of 12
Ozone Good
Flu Activity Sporadic
METAR KRVS 251353Z 17004KT 9SM CLR 18/16 A3009 RMK AO2 SLP194 T01780161

More Conditions Fewer Conditions

Pressure 30.11 in
Visibility 9.0 miles
Clouds Clear
Dew Point Not available.
Humidity Not available.
Rainfall 0.02 in
Snow Depth Not available.
UV 1 out of 12
Pollen 4.30 out of 12
Ozone Good
Flu Activity Sporadic
METAR KRVS 251353Z 17004KT 9SM CLR 18/16 A3009 RMK AO2 SLP194 T01780161

More Conditions Fewer Conditions

10-Day Weather Forecast

Almanac

Astronomy

Oct. 25, 2014 Rise Set
Actual Time 7:40 AM CDT 6:36 PM CDT
Civil Twilight 7:14 AM CDT 7:02 PM CDT
Nautical Twilight 6:44 AM CDT 7:32 PM CDT
Astronomical Twilight 6:14 AM CDT 8:02 PM CDT
Moon 9:17 AM CDT 8:02 PM CDT
Length of Visible Light 11h 48m
Length of Day
10h 55m
Tomorrow will be 2m 5s shorter.
Waxing Crescent, 3% of the Moon is Illuminated
Today
Waxing Crescent
Oct 30
First Quarter
Nov 6
Full
Nov 14
Last Quarter
Nov 22
New

Today's Extremes

State Highs State Lows

Community

WunderPhotos

Upload Photos

1,764,861 photos uploaded!

Nearby

Air Quality

  Air Quality AQ Index Pollutant
Yesterday Good
OZONE
Current Good
OZONE
Saturday Moderate
PM2.5
Saturday Good
OZONE
Sunday Moderate
PM2.5
Sunday Good
OZONE
Monday Moderate
PM2.5
Monday Good
OZONE
Tuesday Moderate
PM2.5
Tuesday Good
OZONE
Wednesday Good
OZONE
Wednesday Good
PM2.5

Snow Depth

Station Depth Elevation
No new snow has been reported.

Earthquake Activity

City Distance Mag. Time & Date
Langston, Oklahoma 67 miles 3.0 7:36 AM CDT
2014-10-25
Pawnee, Oklahoma 57 miles 2.6 7:24 PM CDT
2014-10-24
Medford, Oklahoma 112 miles 2.6 12:44 PM CDT
2014-10-24
Anthony, Kansas 123 miles 2.7 4:24 AM CDT
2014-10-24
Minimum magnitude displayed is 2.5.

Coastal Water Temperatures

Place Temperature
No Stations Reporting

Nearby Weather Stations